createdAt,value
2018-11-25T00:00:20.571Z,101336.91
2018-11-25T00:02:49.493Z,101334.28
2018-11-25T00:05:18.394Z,101333.69
2018-11-25T00:07:47.317Z,101336.44
2018-11-25T00:10:16.197Z,101331.07
2018-11-25T00:12:45.497Z,101330.63
2018-11-25T00:15:14.360Z,101326.32
2018-11-25T00:17:43.230Z,101323.58
2018-11-25T00:20:13.596Z,101324.14
2018-11-25T00:22:42.856Z,101326.83
2018-11-25T00:25:14.209Z,101328.67
2018-11-25T00:27:43.052Z,101328.18
2018-11-25T00:30:13.785Z,101323.62
2018-11-25T00:32:42.783Z,101323.81
2018-11-25T00:35:14.532Z,101323.36
2018-11-25T00:37:48.080Z,101316.62
2018-11-25T00:40:13.529Z,101320.31
2018-11-25T00:42:42.927Z,101315.20
2018-11-25T00:45:16.478Z,101318.70
2018-11-25T00:47:45.422Z,101318.35
2018-11-25T00:50:14.877Z,101314.02
2018-11-25T00:52:44.168Z,101310.34
2018-11-25T00:55:15.628Z,101313.23
2018-11-25T00:57:44.660Z,101306.81
2018-11-25T01:00:17.351Z,101314.91
2018-11-25T01:02:47.610Z,101310.05
2018-11-25T01:05:16.517Z,101306.52
2018-11-25T01:07:45.432Z,101306.58
2018-11-25T01:10:15.808Z,101305.77
2018-11-25T01:12:45.192Z,101306.90
2018-11-25T01:15:15.632Z,101310.62
2018-11-25T01:17:44.590Z,101310.62
2018-11-25T01:20:19.711Z,101306.22
2018-11-25T01:22:48.639Z,101316.25
2018-11-25T01:25:17.518Z,101306.30
2018-11-25T01:27:46.718Z,101309.59
2018-11-25T01:30:16.631Z,101316.84
2018-11-25T01:32:45.897Z,101318.19
2018-11-25T01:35:15.012Z,101313.85
2018-11-25T01:37:43.989Z,101313.80
2018-11-25T01:40:15.492Z,101307.14
2018-11-25T01:42:44.533Z,101313.85
2018-11-25T01:45:16.053Z,101313.26
2018-11-25T01:47:45.100Z,101307.77
2018-11-25T01:50:16.421Z,101305.06
2018-11-25T01:52:45.827Z,101306.95
2018-11-25T01:55:18.534Z,101303.18
2018-11-25T01:57:47.897Z,101302.53
2018-11-25T02:00:22.394Z,101303.83
2018-11-25T02:02:51.253Z,101294.45
2018-11-25T02:05:20.133Z,101300.11
2018-11-25T02:07:49.109Z,101300.73
2018-11-25T02:10:19.160Z,101300.91
2018-11-25T02:12:48.115Z,101296.42
2018-11-25T02:15:17.439Z,101291.30
2018-11-25T02:17:46.384Z,101290.76
2018-11-25T02:20:23.785Z,101289.79
2018-11-25T02:22:55.247Z,101289.39
2018-11-25T02:25:24.138Z,101291.37
2018-11-25T02:27:52.995Z,101289.48
2018-11-25T02:30:21.966Z,101284.02
2018-11-25T02:32:50.905Z,101283.30
2018-11-25T02:35:19.871Z,101283.48
2018-11-25T02:37:48.798Z,101277.91
2018-11-25T02:40:17.774Z,101279.23
2018-11-25T02:42:46.711Z,101276.48
2018-11-25T02:45:17.841Z,101267.83
2018-11-25T02:47:46.826Z,101272.95
2018-11-25T02:50:28.393Z,101273.73
2018-11-25T02:53:01.656Z,101272.48
2018-11-25T02:55:30.648Z,101271.28
2018-11-25T02:58:00.800Z,101273.84
2018-11-25T03:00:28.458Z,101266.81
2018-11-25T03:02:57.402Z,101278.28
2018-11-25T03:05:26.320Z,101274.48
2018-11-25T03:07:55.216Z,101271.79
2018-11-25T03:10:24.177Z,101271.20
2018-11-25T03:12:53.069Z,101273.38
2018-11-25T03:15:21.978Z,101273.22
2018-11-25T03:17:51.007Z,101276.23
2018-11-25T03:20:20.204Z,101273.76
2018-11-25T03:22:49.064Z,101274.19
2018-11-25T03:25:20.255Z,101273.97
2018-11-25T03:27:49.227Z,101278.04
2018-11-25T03:30:22.220Z,101271.55
2018-11-25T03:32:52.803Z,101274.67
2018-11-25T03:35:21.763Z,101271.79
2018-11-25T03:37:50.676Z,101270.69
2018-11-25T03:40:19.979Z,101274.41
2018-11-25T03:42:48.968Z,101268.27
2018-11-25T03:45:19.571Z,101266.70
2018-11-25T03:47:48.580Z,101273.66
2018-11-25T03:50:17.619Z,101270.36
2018-11-25T03:52:46.570Z,101274.80
2018-11-25T03:55:16.661Z,101275.94
2018-11-25T03:57:45.649Z,101280.86
2018-11-25T04:00:19.740Z,101280.48
2018-11-25T04:02:51.818Z,101279.70
2018-11-25T04:05:20.657Z,101274.94
2018-11-25T04:07:49.554Z,101277.61
2018-11-25T04:10:19.182Z,101278.36
2018-11-25T04:12:48.229Z,101278.36
2018-11-25T04:15:18.469Z,101273.84
2018-11-25T04:17:48.199Z,101280.43
2018-11-25T04:20:19.283Z,101277.79
2018-11-25T04:22:48.803Z,101277.20
2018-11-25T04:25:17.797Z,101276.06
2018-11-25T04:27:47.018Z,101278.55
2018-11-25T04:30:17.162Z,101272.34
2018-11-25T04:32:47.466Z,101278.55
2018-11-25T04:35:16.490Z,101272.50
2018-11-25T04:37:45.385Z,101280.23
2018-11-25T04:40:17.177Z,101277.17
2018-11-25T04:42:46.110Z,101282.89
2018-11-25T04:45:16.166Z,101279.96
2018-11-25T04:47:46.144Z,101274.18
2018-11-25T04:50:16.518Z,101276.55
2018-11-25T04:52:45.777Z,101269.30
2018-11-25T04:55:14.759Z,101276.36
2018-11-25T04:57:49.142Z,101276.88
2018-11-25T05:00:18.453Z,101273.07
2018-11-25T05:02:47.609Z,101271.88
2018-11-25T05:05:17.114Z,101268.39
2018-11-25T05:07:46.081Z,101266.92
2018-11-25T05:10:16.165Z,101264.41
2018-11-25T05:12:45.122Z,101263.72
2018-11-25T05:15:18.210Z,101254.78
2018-11-25T05:17:47.181Z,101270.34
2018-11-25T05:20:16.791Z,101263.63
2018-11-25T05:22:45.714Z,101268.76
2018-11-25T05:25:17.325Z,101271.45
2018-11-25T05:27:46.231Z,101272.83
2018-11-25T05:30:18.246Z,101262.84
2018-11-25T05:32:47.132Z,101263.91
2018-11-25T05:35:17.514Z,101263.30
2018-11-25T05:37:46.402Z,101273.45
2018-11-25T05:40:16.203Z,101263.09
2018-11-25T05:42:45.197Z,101266.69
2018-11-25T05:45:16.563Z,101270.73
2018-11-25T05:47:45.765Z,101266.42
2018-11-25T05:50:16.165Z,101267.26
2018-11-25T05:52:45.146Z,101264.50
2018-11-25T05:55:14.304Z,101269.72
2018-11-25T05:57:43.358Z,101266.92
2018-11-25T06:00:20.948Z,101268.04
2018-11-25T06:02:49.810Z,101278.02
2018-11-25T06:05:18.679Z,101279.88
2018-11-25T06:07:47.621Z,101278.73
2018-11-25T06:10:16.487Z,101282.50
2018-11-25T06:12:45.365Z,101283.19
2018-11-25T06:15:14.862Z,101281.52
2018-11-25T06:17:43.739Z,101284.75
2018-11-25T06:20:15.889Z,101286.07
2018-11-25T06:22:45.238Z,101288.26
2018-11-25T06:25:15.841Z,101291.08
2018-11-25T06:27:44.768Z,101295.33
2018-11-25T06:30:17.327Z,101295.66
2018-11-25T06:32:46.682Z,101292.03
2018-11-25T06:35:17.010Z,101288.83
2018-11-25T06:37:45.955Z,101292.62
2018-11-25T06:40:17.617Z,101300.06
2018-11-25T06:42:46.543Z,101296.02
2018-11-25T06:45:25.226Z,101300.72
2018-11-25T06:47:55.507Z,101303.12
2018-11-25T06:50:24.437Z,101296.70
2018-11-25T06:52:53.347Z,101304.02
2018-11-25T06:55:22.219Z,101301.23
2018-11-25T06:57:51.156Z,101303.83
2018-11-25T07:00:23.567Z,101307.79
2018-11-25T07:02:52.639Z,101306.11
2018-11-25T07:05:21.560Z,101305.88
2018-11-25T07:07:50.525Z,101307.97
2018-11-25T07:10:21.562Z,101312.67
2018-11-25T07:12:51.934Z,101310.84
2018-11-25T07:15:21.221Z,101313.60
2018-11-25T07:17:50.104Z,101315.73
2018-11-25T07:20:19.552Z,101316.24
2018-11-25T07:22:48.382Z,101315.76
2018-11-25T07:25:19.901Z,101320.02
2018-11-25T07:27:48.896Z,101316.48
2018-11-25T07:30:25.086Z,101317.53
2018-11-25T07:32:54.194Z,101326.16
2018-11-25T07:35:25.419Z,101322.92
2018-11-25T07:37:54.741Z,101322.29
2018-11-25T07:40:24.766Z,101324.78
2018-11-25T07:42:53.645Z,101331.94
2018-11-25T07:45:29.992Z,101332.78
2018-11-25T07:47:53.077Z,101338.14
2018-11-25T07:50:22.059Z,101332.21
2018-11-25T07:52:51.525Z,101331.10
2018-11-25T07:55:23.041Z,101338.89
2018-11-25T07:57:53.289Z,101336.80
2018-11-25T08:00:23.985Z,101337.81
2018-11-25T08:02:52.981Z,101338.59
2018-11-25T08:05:23.770Z,101343.36
2018-11-25T08:07:52.725Z,101346.86
2018-11-25T08:10:21.651Z,101346.56
2018-11-25T08:12:50.675Z,101344.26
2018-11-25T08:15:20.281Z,101351.02
2018-11-25T08:17:49.566Z,101355.55
2018-11-25T08:20:20.809Z,101351.12
2018-11-25T08:22:50.029Z,101355.07
2018-11-25T08:25:20.539Z,101350.96
2018-11-25T08:27:49.490Z,101352.75
2018-11-25T08:30:23.717Z,101350.77
2018-11-25T08:32:52.885Z,101347.22
2018-11-25T08:35:21.886Z,101348.74
2018-11-25T08:37:50.831Z,101354.84
2018-11-25T08:40:24.328Z,101351.95
2018-11-25T08:42:53.376Z,101350.26
2018-11-25T08:45:22.338Z,101352.21
2018-11-25T08:47:51.421Z,101356.27
2018-11-25T08:50:20.550Z,101354.31
2018-11-25T08:52:51.100Z,101347.05
2018-11-25T08:55:21.844Z,101349.32
2018-11-25T08:57:50.883Z,101349.32
2018-11-25T09:00:23.087Z,101352.08
2018-11-25T09:02:53.532Z,101343.98
2018-11-25T09:05:22.519Z,101344.33
2018-11-25T09:07:51.832Z,101351.69
2018-11-25T09:10:21.999Z,101350.44
2018-11-25T09:12:56.334Z,101358.03
2018-11-25T09:15:27.497Z,101357.75
2018-11-25T09:17:56.505Z,101364.81
2018-11-25T09:20:25.436Z,101360.89
2018-11-25T09:22:54.766Z,101365.25
2018-11-25T09:25:28.501Z,101365.95
2018-11-25T09:27:58.727Z,101370.31
2018-11-25T09:30:29.061Z,101374.02
2018-11-25T09:32:58.021Z,101374.50
2018-11-25T09:35:26.931Z,101383.00
2018-11-25T09:37:55.781Z,101381.75
2018-11-25T09:40:26.403Z,101387.19
2018-11-25T09:42:56.316Z,101386.92
2018-11-25T09:45:25.291Z,101382.29
2018-11-25T09:47:54.347Z,101384.86
2018-11-25T09:50:24.262Z,101385.27
2018-11-25T09:52:53.284Z,101379.36
2018-11-25T09:55:23.630Z,101380.97
2018-11-25T09:57:58.142Z,101378.65
2018-11-25T10:00:32.069Z,101379.96
2018-11-25T10:03:01.276Z,101382.59
2018-11-25T10:05:30.313Z,101378.34
2018-11-25T10:07:59.229Z,101373.41
2018-11-25T10:10:28.243Z,101366.36
2018-11-25T10:12:57.136Z,101367.71
2018-11-25T10:15:28.599Z,101370.27
2018-11-25T10:17:59.878Z,101366.96
2018-11-25T10:20:28.703Z,101365.87
2018-11-25T10:22:57.681Z,101366.02
2018-11-25T10:25:26.867Z,101367.52
2018-11-25T10:27:56.318Z,101362.46
2018-11-25T10:30:27.834Z,101355.47
2018-11-25T10:33:02.399Z,101364.58
2018-11-25T10:35:31.318Z,101363.63
2018-11-25T10:38:00.281Z,101364.33
2018-11-25T10:40:29.245Z,101364.02
2018-11-25T10:42:58.189Z,101358.46
2018-11-25T10:45:28.014Z,101359.81
2018-11-25T10:47:57.897Z,101350.12
2018-11-25T10:50:26.959Z,101359.50
2018-11-25T10:52:56.006Z,101348.89
2018-11-25T10:55:24.959Z,101350.20
2018-11-25T10:57:54.131Z,101346.23
2018-11-25T11:00:33.216Z,101339.27
2018-11-25T11:03:07.717Z,101335.69
2018-11-25T11:05:42.050Z,101335.69
2018-11-25T11:08:11.206Z,101336.92
2018-11-25T11:10:40.092Z,101325.27
2018-11-25T11:13:09.290Z,101333.28
2018-11-25T11:15:38.268Z,101326.25
2018-11-25T11:18:07.781Z,101327.14
2018-11-25T11:20:36.720Z,101335.65
2018-11-25T11:23:06.342Z,101330.31
2018-11-25T11:25:35.293Z,101326.66
2018-11-25T11:28:04.421Z,101334.01
2018-11-25T11:30:33.316Z,101335.01
2018-11-25T11:33:02.266Z,101336.22
2018-11-25T11:35:31.327Z,101338.94
2018-11-25T11:38:00.473Z,101340.67
2018-11-25T11:40:29.302Z,101346.34
2018-11-25T11:42:58.182Z,101345.40
2018-11-25T11:45:27.359Z,101339.99
2018-11-25T11:47:56.316Z,101345.48
2018-11-25T11:50:25.259Z,101345.56
2018-11-25T11:52:54.222Z,101346.72
2018-11-25T11:55:23.154Z,101349.97
2018-11-25T11:57:52.204Z,101341.01
2018-11-25T12:00:31.103Z,101348.00
2018-11-25T12:03:00.396Z,101347.50
2018-11-25T12:05:29.308Z,101339.53
2018-11-25T12:07:58.339Z,101348.65
2018-11-25T12:10:27.237Z,101343.05
2018-11-25T12:12:56.197Z,101348.38
2018-11-25T12:15:30.785Z,101350.97
2018-11-25T12:17:58.466Z,101348.50
2018-11-25T12:20:29.153Z,101347.60
2018-11-25T12:22:59.281Z,101345.44
2018-11-25T12:25:28.301Z,101340.56
2018-11-25T12:27:57.266Z,101344.42
2018-11-25T12:30:26.483Z,101345.66
2018-11-25T12:32:55.386Z,101342.59
2018-11-25T12:35:24.414Z,101342.55
2018-11-25T12:37:53.365Z,101347.53
2018-11-25T12:40:23.092Z,101347.67
2018-11-25T12:42:56.494Z,101352.58
2018-11-25T12:45:25.474Z,101349.50
2018-11-25T12:47:54.449Z,101347.84
2018-11-25T12:50:25.889Z,101346.86
2018-11-25T12:52:55.243Z,101348.30
2018-11-25T12:55:25.917Z,101346.82
2018-11-25T12:57:55.969Z,101343.30
2018-11-25T13:00:37.999Z,101341.63
2018-11-25T13:03:09.265Z,101342.77
2018-11-25T13:05:45.651Z,101332.80
2018-11-25T13:08:08.813Z,101329.06
2018-11-25T13:10:37.782Z,101325.37
2018-11-25T13:13:08.947Z,101317.93
2018-11-25T13:15:37.895Z,101309.77
2018-11-25T13:18:08.345Z,101315.19
2018-11-25T13:20:37.446Z,101310.81
2018-11-25T13:23:07.064Z,101306.77
2018-11-25T13:25:35.913Z,101301.36
2018-11-25T13:28:05.067Z,101294.34
2018-11-25T13:30:34.157Z,101292.27
2018-11-25T13:33:08.785Z,101289.92
2018-11-25T13:35:42.072Z,101292.94
2018-11-25T13:38:11.313Z,101282.22
2018-11-25T13:40:40.394Z,101287.70
2018-11-25T13:43:09.373Z,101283.29
2018-11-25T13:45:38.355Z,101287.58
2018-11-25T13:48:07.819Z,101285.86
2018-11-25T13:50:36.768Z,101294.60
2018-11-25T13:53:06.328Z,101294.29
2018-11-25T13:55:35.146Z,101299.13
2018-11-25T13:58:04.076Z,101301.28
2018-11-25T14:00:47.563Z,101301.73
2018-11-25T14:03:24.513Z,101306.02
2018-11-25T14:05:53.704Z,101301.91
2018-11-25T14:08:22.370Z,101297.17
2018-11-25T14:10:57.645Z,101301.96
2018-11-25T14:13:26.614Z,101298.77
2018-11-25T14:15:55.518Z,101302.81
2018-11-25T14:18:24.349Z,101314.75
2018-11-25T14:20:53.353Z,101311.92
2018-11-25T14:23:24.041Z,101311.92
2018-11-25T14:25:56.458Z,101314.13
2018-11-25T14:28:25.644Z,101309.45
2018-11-25T14:30:54.648Z,101319.73
2018-11-25T14:33:23.530Z,101322.52
2018-11-25T14:35:52.465Z,101317.95
2018-11-25T14:38:23.624Z,101312.42
2018-11-25T14:40:54.027Z,101316.71
2018-11-25T14:43:25.129Z,101319.54
2018-11-25T14:45:54.056Z,101323.60
2018-11-25T14:48:22.940Z,101322.56
2018-11-25T14:50:51.854Z,101322.02
2018-11-25T14:53:20.776Z,101322.33
2018-11-25T14:55:49.784Z,101324.64
2018-11-25T14:58:18.648Z,101331.17
2018-11-25T15:00:47.611Z,101333.80
2018-11-25T15:03:16.523Z,101332.21
2018-11-25T15:05:47.347Z,101335.41
2018-11-25T15:08:22.690Z,101338.61
2018-11-25T15:10:51.566Z,101338.61
2018-11-25T15:13:20.525Z,101330.86
2018-11-25T15:15:49.570Z,101338.84
2018-11-25T15:18:18.519Z,101334.87
2018-11-25T15:20:47.365Z,101336.08
2018-11-25T15:23:16.652Z,101338.34
2018-11-25T15:25:55.896Z,101339.34
2018-11-25T15:28:24.888Z,101337.63
2018-11-25T15:30:53.790Z,101339.70
2018-11-25T15:33:22.670Z,101343.75
2018-11-25T15:35:51.560Z,101340.50
2018-11-25T15:38:20.453Z,101336.13
2018-11-25T15:40:49.371Z,101336.25
2018-11-25T15:43:18.285Z,101338.97
2018-11-25T15:45:47.110Z,101344.38
2018-11-25T15:48:22.600Z,101351.08
2018-11-25T15:50:51.733Z,101350.59
2018-11-25T15:53:21.009Z,101341.54
2018-11-25T15:55:52.643Z,101344.14
2018-11-25T15:58:21.566Z,101347.92
2018-11-25T16:00:50.461Z,101344.49
2018-11-25T16:03:19.423Z,101344.72
2018-11-25T16:06:03.694Z,101343.14
2018-11-25T16:08:38.000Z,101345.22
2018-11-25T16:11:01.481Z,101342.41
2018-11-25T16:13:30.440Z,101347.55
2018-11-25T16:15:59.258Z,101351.87
2018-11-25T16:18:28.442Z,101356.70
2018-11-25T16:20:57.319Z,101357.28
2018-11-25T16:23:26.235Z,101360.09
2018-11-25T16:25:57.912Z,101348.78
2018-11-25T16:28:42.233Z,101352.11
2018-11-25T16:31:11.124Z,101347.73
2018-11-25T16:33:40.065Z,101346.08
2018-11-25T16:36:09.084Z,101345.80
2018-11-25T16:38:38.006Z,101347.43
2018-11-25T16:41:07.016Z,101346.93
2018-11-25T16:43:36.077Z,101335.84
2018-11-25T16:46:05.093Z,101339.89
2018-11-25T16:48:34.011Z,101344.00
2018-11-25T16:51:02.921Z,101343.84
2018-11-25T16:53:31.825Z,101338.35
2018-11-25T16:56:00.706Z,101340.38
2018-11-25T16:58:29.987Z,101342.13
2018-11-25T17:00:58.969Z,101345.28
2018-11-25T17:03:27.824Z,101346.94
2018-11-25T17:05:57.010Z,101348.38
2018-11-25T17:08:37.309Z,101347.17
2018-11-25T17:11:07.516Z,101349.03
2018-11-25T17:13:36.516Z,101351.96
2018-11-25T17:16:06.535Z,101353.44
2018-11-25T17:18:35.503Z,101355.28
2018-11-25T17:21:04.470Z,101352.94
2018-11-25T17:23:33.713Z,101350.38
2018-11-25T17:26:02.607Z,101356.14
2018-11-25T17:28:31.450Z,101349.91
2018-11-25T17:31:00.334Z,101350.56
2018-11-25T17:33:29.201Z,101350.61
2018-11-25T17:35:58.205Z,101348.98
2018-11-25T17:38:27.084Z,101352.53
2018-11-25T17:40:56.312Z,101353.70
2018-11-25T17:43:25.666Z,101351.54
2018-11-25T17:45:54.494Z,101358.80
2018-11-25T17:48:23.412Z,101359.58
2018-11-25T17:50:52.383Z,101357.38
2018-11-25T17:53:21.277Z,101356.95
2018-11-25T17:55:50.762Z,101360.15
2018-11-25T17:58:19.736Z,101355.16
2018-11-25T18:00:58.467Z,101358.53
2018-11-25T18:03:29.627Z,101364.98
2018-11-25T18:05:59.184Z,101366.79
2018-11-25T18:08:28.050Z,101367.83
2018-11-25T18:10:57.027Z,101363.89
2018-11-25T18:13:29.594Z,101369.70
2018-11-25T18:16:01.346Z,101377.44
2018-11-25T18:18:46.205Z,101375.21
2018-11-25T18:21:23.820Z,101377.11
2018-11-25T18:23:53.504Z,101373.00
2018-11-25T18:26:23.065Z,101371.08
2018-11-25T18:28:52.024Z,101372.16
2018-11-25T18:31:21.035Z,101378.11
2018-11-25T18:33:49.954Z,101375.33
2018-11-25T18:36:18.762Z,101375.14
2018-11-25T18:38:48.114Z,101378.53
2018-11-25T18:41:17.042Z,101384.32
2018-11-25T18:43:46.198Z,101379.87
2018-11-25T18:46:15.102Z,101379.53
2018-11-25T18:48:46.436Z,101369.33
2018-11-25T18:51:15.289Z,101375.09
2018-11-25T18:53:44.740Z,101370.80
2018-11-25T18:56:14.138Z,101363.66
2018-11-25T18:58:43.626Z,101369.83
2018-11-25T19:01:22.566Z,101370.94
2018-11-25T19:03:51.494Z,101369.44
2018-11-25T19:06:20.407Z,101367.36
2018-11-25T19:08:49.279Z,101370.91
2018-11-25T19:11:18.191Z,101365.38
2018-11-25T19:13:47.095Z,101366.06
2018-11-25T19:16:16.001Z,101374.38
2018-11-25T19:18:44.912Z,101366.27
2018-11-25T19:21:13.802Z,101362.80
2018-11-25T19:23:42.658Z,101376.02
2018-11-25T19:26:11.527Z,101362.30
2018-11-25T19:28:40.764Z,101367.99
2018-11-25T19:31:09.779Z,101361.76
2018-11-25T19:33:38.657Z,101364.96
2018-11-25T19:36:07.566Z,101365.45
2018-11-25T19:38:36.416Z,101370.19
2018-11-25T19:41:06.274Z,101369.83
2018-11-25T19:43:35.234Z,101371.89
2018-11-25T19:46:04.231Z,101377.06
2018-11-25T19:48:33.097Z,101382.58
2018-11-25T19:51:01.988Z,101380.50
2018-11-25T19:53:30.907Z,101389.47
2018-11-25T19:56:00.422Z,101386.95
2018-11-25T19:58:29.346Z,101391.67
2018-11-25T20:00:58.173Z,101392.17
2018-11-25T20:03:27.038Z,101398.12
2018-11-25T20:05:55.904Z,101407.89
2018-11-25T20:08:24.865Z,101400.23
2018-11-25T20:10:53.701Z,101405.30
2018-11-25T20:13:22.565Z,101409.34
2018-11-25T20:15:51.424Z,101407.69
2018-11-25T20:18:20.327Z,101410.86
2018-11-25T20:20:54.927Z,101405.77
2018-11-25T20:23:23.796Z,101406.61
2018-11-25T20:25:52.655Z,101405.19
2018-11-25T20:28:21.574Z,101400.78
2018-11-25T20:30:50.521Z,101401.09
2018-11-25T20:33:25.072Z,101408.39
2018-11-25T20:35:53.899Z,101406.66
2018-11-25T20:38:28.444Z,101412.95
2018-11-25T20:40:57.398Z,101412.76
2018-11-25T20:43:26.278Z,101415.69
2018-11-25T20:46:00.941Z,101409.32
2018-11-25T20:48:30.256Z,101411.33
2018-11-25T20:50:59.291Z,101417.23
2018-11-25T20:53:33.630Z,101416.58
2018-11-25T20:56:02.517Z,101413.58
2018-11-25T20:58:31.493Z,101418.67
2018-11-25T21:01:00.433Z,101410.94
2018-11-25T21:03:29.306Z,101413.77
2018-11-25T21:05:58.255Z,101414.11
2018-11-25T21:08:27.475Z,101412.02
2018-11-25T21:10:56.050Z,101413.64
2018-11-25T21:13:25.167Z,101408.82
2018-11-25T21:15:54.145Z,101416.70
2018-11-25T21:18:22.960Z,101415.73
2018-11-25T21:20:52.643Z,101417.58
2018-11-25T21:23:21.425Z,101415.58
2018-11-25T21:25:50.465Z,101408.78
2018-11-25T21:28:19.329Z,101405.99
2018-11-25T21:30:48.964Z,101407.04
2018-11-25T21:33:18.546Z,101412.38
2018-11-25T21:35:47.487Z,101422.34
2018-11-25T21:38:16.417Z,101416.19
2018-11-25T21:40:45.666Z,101419.52
2018-11-25T21:43:14.477Z,101423.60
2018-11-25T21:45:43.364Z,101423.30
2018-11-25T21:48:12.460Z,101420.81
2018-11-25T21:50:41.435Z,101417.84
2018-11-25T21:53:10.376Z,101413.60
2018-11-25T21:55:39.199Z,101418.50
2018-11-25T21:58:08.169Z,101419.59
2018-11-25T22:00:37.036Z,101421.09
2018-11-25T22:03:06.074Z,101422.05
2018-11-25T22:05:34.992Z,101418.85
2018-11-25T22:08:05.074Z,101425.30
2018-11-25T22:10:33.945Z,101424.80
2018-11-25T22:13:02.833Z,101418.61
2018-11-25T22:15:31.796Z,101417.73
2018-11-25T22:18:00.650Z,101421.05
2018-11-25T22:20:29.509Z,101417.73
2018-11-25T22:22:58.377Z,101419.70
2018-11-25T22:25:27.283Z,101412.75
2018-11-25T22:27:56.244Z,101416.03
2018-11-25T22:30:25.287Z,101408.55
2018-11-25T22:32:54.487Z,101412.63
2018-11-25T22:35:23.838Z,101411.78
2018-11-25T22:37:52.912Z,101411.59
2018-11-25T22:40:21.838Z,101407.38
2018-11-25T22:42:51.448Z,101420.00
2018-11-25T22:45:22.434Z,101428.20
2018-11-25T22:47:51.387Z,101427.50
2018-11-25T22:50:21.838Z,101431.02
2018-11-25T22:52:51.042Z,101435.56
2018-11-25T22:55:23.718Z,101433.95
2018-11-25T22:57:52.748Z,101436.22
2018-11-25T23:00:26.734Z,101441.82
2018-11-25T23:02:55.697Z,101444.18
2018-11-25T23:05:41.403Z,101439.28
2018-11-25T23:08:10.330Z,101436.72
2018-11-25T23:10:39.254Z,101444.06
2018-11-25T23:13:08.296Z,101432.91
2018-11-25T23:15:37.338Z,101447.64
2018-11-25T23:18:06.300Z,101450.98
2018-11-25T23:20:35.234Z,101452.27
2018-11-25T23:23:04.288Z,101448.52
2018-11-25T23:25:33.253Z,101446.98
2018-11-25T23:28:02.118Z,101452.63
2018-11-25T23:30:31.015Z,101453.89
2018-11-25T23:32:59.916Z,101452.29
2018-11-25T23:35:30.978Z,101454.87
2018-11-25T23:37:59.558Z,101450.44
2018-11-25T23:40:28.514Z,101454.29
2018-11-25T23:42:57.428Z,101450.73
2018-11-25T23:45:26.341Z,101451.05
2018-11-25T23:47:55.211Z,101447.97
2018-11-25T23:50:24.242Z,101445.27
2018-11-25T23:52:53.248Z,101450.87
2018-11-25T23:55:22.129Z,101450.67
2018-11-25T23:57:51.042Z,101456.04
